Aviation Digital Data Service (ADDS)

Output produced by METARs form (0555 UTC 08 December 2016)
found at http://aviationweather.gov/adds/metars/
 
KBTV 080531Z 0806/0906 18004KT P6SM OVC040 
     FM081400 20008KT P6SM VCSH OVC040 
     TEMPO 0815/0818 21010G16KT 3SM -SHSN OVC025 
     FM082000 25008KT P6SM VCSH BKN045 
     FM082300 25007KT P6SM BKN050